sensor_id;sensor_type;location;lat;lon;timestamp;P1;durP1;ratioP1;P2;durP2;ratioP2
13349;SDS011;6744;53.190;6.576;2022-12-01T00:00:35;40.47;;;29.80;;
13349;SDS011;6744;53.190;6.576;2022-12-01T00:03:01;40.43;;;29.80;;
13349;SDS011;6744;53.190;6.576;2022-12-01T00:05:26;44.03;;;31.93;;
13349;SDS011;6744;53.190;6.576;2022-12-01T00:07:52;44.50;;;30.90;;
13349;SDS011;6744;53.190;6.576;2022-12-01T00:10:17;42.47;;;30.23;;
13349;SDS011;6744;53.190;6.576;2022-12-01T00:12:52;42.57;;;30.57;;
13349;SDS011;6744;53.190;6.576;2022-12-01T00:15:19;44.07;;;31.03;;
13349;SDS011;6744;53.190;6.576;2022-12-01T00:17:44;43.10;;;31.07;;
13349;SDS011;6744;53.190;6.576;2022-12-01T00:20:12;40.07;;;30.40;;
13349;SDS011;6744;53.190;6.576;2022-12-01T00:22:40;44.73;;;31.73;;
13349;SDS011;6744;53.190;6.576;2022-12-01T00:25:07;45.23;;;31.73;;
13349;SDS011;6744;53.190;6.576;2022-12-01T00:27:32;45.60;;;30.80;;
13349;SDS011;6744;53.190;6.576;2022-12-01T00:29:57;39.43;;;29.87;;
13349;SDS011;6744;53.190;6.576;2022-12-01T00:32:23;43.37;;;30.50;;
13349;SDS011;6744;53.190;6.576;2022-12-01T00:34:48;42.80;;;30.17;;
13349;SDS011;6744;53.190;6.576;2022-12-01T00:37:13;39.27;;;29.77;;
13349;SDS011;6744;53.190;6.576;2022-12-01T00:39:39;38.70;;;29.03;;
13349;SDS011;6744;53.190;6.576;2022-12-01T00:42:04;41.70;;;29.70;;
13349;SDS011;6744;53.190;6.576;2022-12-01T00:44:29;47.73;;;33.70;;
13349;SDS011;6744;53.190;6.576;2022-12-01T00:46:55;44.27;;;31.50;;
13349;SDS011;6744;53.190;6.576;2022-12-01T00:49:20;50.20;;;35.33;;
13349;SDS011;6744;53.190;6.576;2022-12-01T00:51:45;47.43;;;33.87;;
13349;SDS011;6744;53.190;6.576;2022-12-01T00:54:11;45.17;;;32.80;;
13349;SDS011;6744;53.190;6.576;2022-12-01T00:56:36;45.47;;;32.97;;
13349;SDS011;6744;53.190;6.576;2022-12-01T00:59:01;47.70;;;34.20;;
13349;SDS011;6744;53.190;6.576;2022-12-01T01:01:26;44.10;;;32.10;;
13349;SDS011;6744;53.190;6.576;2022-12-01T01:03:52;43.63;;;31.60;;
13349;SDS011;6744;53.190;6.576;2022-12-01T01:06:17;43.90;;;31.30;;
13349;SDS011;6744;53.190;6.576;2022-12-01T01:08:42;43.50;;;31.33;;
13349;SDS011;6744;53.190;6.576;2022-12-01T01:11:08;42.63;;;31.73;;
13349;SDS011;6744;53.190;6.576;2022-12-01T01:13:34;43.67;;;32.13;;
13349;SDS011;6744;53.190;6.576;2022-12-01T01:16:03;43.20;;;31.23;;
13349;SDS011;6744;53.190;6.576;2022-12-01T01:18:31;45.97;;;32.83;;
13349;SDS011;6744;53.190;6.576;2022-12-01T01:20:57;49.40;;;34.83;;
13349;SDS011;6744;53.190;6.576;2022-12-01T01:23:23;45.07;;;33.13;;
13349;SDS011;6744;53.190;6.576;2022-12-01T01:25:49;43.63;;;32.60;;
13349;SDS011;6744;53.190;6.576;2022-12-01T01:28:14;46.57;;;33.53;;
13349;SDS011;6744;53.190;6.576;2022-12-01T01:30:40;45.93;;;33.00;;
13349;SDS011;6744;53.190;6.576;2022-12-01T01:33:05;47.27;;;33.43;;
13349;SDS011;6744;53.190;6.576;2022-12-01T01:35:30;45.53;;;32.97;;
13349;SDS011;6744;53.190;6.576;2022-12-01T01:37:57;45.97;;;32.53;;
13349;SDS011;6744;53.190;6.576;2022-12-01T01:40:22;45.53;;;33.20;;
13349;SDS011;6744;53.190;6.576;2022-12-01T01:42:47;49.10;;;32.17;;
13349;SDS011;6744;53.190;6.576;2022-12-01T01:45:18;45.20;;;32.63;;
13349;SDS011;6744;53.190;6.576;2022-12-01T01:47:49;50.20;;;34.10;;
13349;SDS011;6744;53.190;6.576;2022-12-01T01:50:17;49.97;;;33.83;;
13349;SDS011;6744;53.190;6.576;2022-12-01T01:52:44;47.77;;;33.40;;
13349;SDS011;6744;53.190;6.576;2022-12-01T01:55:15;49.70;;;33.40;;
13349;SDS011;6744;53.190;6.576;2022-12-01T01:57:41;45.43;;;33.47;;
13349;SDS011;6744;53.190;6.576;2022-12-01T02:00:08;46.90;;;32.20;;
13349;SDS011;6744;53.190;6.576;2022-12-01T02:02:38;41.47;;;30.37;;
13349;SDS011;6744;53.190;6.576;2022-12-01T02:05:08;46.70;;;33.73;;
13349;SDS011;6744;53.190;6.576;2022-12-01T02:07:38;46.50;;;32.90;;
13349;SDS011;6744;53.190;6.576;2022-12-01T02:10:04;47.27;;;34.13;;
13349;SDS011;6744;53.190;6.576;2022-12-01T02:18:14;47.67;;;33.47;;
13349;SDS011;6744;53.190;6.576;2022-12-01T02:27:19;46.13;;;32.87;;
13349;SDS011;6744;53.190;6.576;2022-12-01T02:30:08;50.30;;;33.27;;
13349;SDS011;6744;53.190;6.576;2022-12-01T02:38:24;46.53;;;33.17;;
13349;SDS011;6744;53.190;6.576;2022-12-01T02:43:30;44.87;;;32.27;;
13349;SDS011;6744;53.190;6.576;2022-12-01T02:45:59;51.37;;;35.43;;
13349;SDS011;6744;53.190;6.576;2022-12-01T02:48:33;50.97;;;35.43;;
13349;SDS011;6744;53.190;6.576;2022-12-01T02:53:45;44.63;;;33.30;;
13349;SDS011;6744;53.190;6.576;2022-12-01T02:56:11;47.67;;;33.63;;
13349;SDS011;6744;53.190;6.576;2022-12-01T02:58:38;46.70;;;32.30;;
13349;SDS011;6744;53.190;6.576;2022-12-01T03:06:35;43.87;;;31.87;;
13349;SDS011;6744;53.190;6.576;2022-12-01T03:11:49;52.30;;;35.57;;
13349;SDS011;6744;53.190;6.576;2022-12-01T03:14:36;49.37;;;35.50;;
13349;SDS011;6744;53.190;6.576;2022-12-01T03:17:06;48.93;;;34.00;;
13349;SDS011;6744;53.190;6.576;2022-12-01T03:19:37;47.53;;;33.43;;
13349;SDS011;6744;53.190;6.576;2022-12-01T03:24:47;46.33;;;32.70;;
13349;SDS011;6744;53.190;6.576;2022-12-01T03:27:13;46.10;;;32.17;;
13349;SDS011;6744;53.190;6.576;2022-12-01T03:29:42;48.27;;;34.63;;
13349;SDS011;6744;53.190;6.576;2022-12-01T03:32:12;47.80;;;33.27;;
13349;SDS011;6744;53.190;6.576;2022-12-01T03:34:50;46.23;;;32.10;;
13349;SDS011;6744;53.190;6.576;2022-12-01T03:37:21;43.27;;;31.67;;
13349;SDS011;6744;53.190;6.576;2022-12-01T03:39:52;48.60;;;33.17;;
13349;SDS011;6744;53.190;6.576;2022-12-01T03:42:25;48.40;;;33.47;;
13349;SDS011;6744;53.190;6.576;2022-12-01T03:44:53;47.20;;;33.20;;
13349;SDS011;6744;53.190;6.576;2022-12-01T03:47:24;50.13;;;35.00;;
13349;SDS011;6744;53.190;6.576;2022-12-01T03:49:53;49.50;;;33.00;;
13349;SDS011;6744;53.190;6.576;2022-12-01T03:55:26;52.30;;;36.23;;
13349;SDS011;6744;53.190;6.576;2022-12-01T03:58:08;48.43;;;35.80;;
13349;SDS011;6744;53.190;6.576;2022-12-01T04:00:36;50.57;;;36.17;;
13349;SDS011;6744;53.190;6.576;2022-12-01T04:03:02;49.23;;;34.37;;
13349;SDS011;6744;53.190;6.576;2022-12-01T04:05:28;47.70;;;33.23;;
13349;SDS011;6744;53.190;6.576;2022-12-01T04:07:53;50.20;;;34.87;;
13349;SDS011;6744;53.190;6.576;2022-12-01T04:10:19;49.83;;;35.40;;
13349;SDS011;6744;53.190;6.576;2022-12-01T04:12:44;50.23;;;35.73;;
13349;SDS011;6744;53.190;6.576;2022-12-01T04:15:11;47.97;;;33.57;;
13349;SDS011;6744;53.190;6.576;2022-12-01T04:17:37;51.40;;;34.90;;
13349;SDS011;6744;53.190;6.576;2022-12-01T04:20:03;47.47;;;32.63;;
13349;SDS011;6744;53.190;6.576;2022-12-01T04:22:30;46.50;;;33.67;;
13349;SDS011;6744;53.190;6.576;2022-12-01T04:24:56;48.33;;;34.17;;
13349;SDS011;6744;53.190;6.576;2022-12-01T04:27:21;51.47;;;35.13;;
13349;SDS011;6744;53.190;6.576;2022-12-01T04:29:47;47.53;;;34.47;;
13349;SDS011;6744;53.190;6.576;2022-12-01T04:32:12;44.17;;;33.03;;
13349;SDS011;6744;53.190;6.576;2022-12-01T04:34:37;51.40;;;35.47;;
13349;SDS011;6744;53.190;6.576;2022-12-01T04:37:03;45.13;;;32.40;;
13349;SDS011;6744;53.190;6.576;2022-12-01T04:39:29;49.33;;;33.47;;
13349;SDS011;6744;53.190;6.576;2022-12-01T04:41:55;44.93;;;32.77;;
13349;SDS011;6744;53.190;6.576;2022-12-01T04:44:20;44.90;;;32.10;;
13349;SDS011;6744;53.190;6.576;2022-12-01T04:46:45;46.83;;;32.80;;
13349;SDS011;6744;53.190;6.576;2022-12-01T04:49:11;43.80;;;31.30;;
13349;SDS011;6744;53.190;6.576;2022-12-01T04:51:36;45.40;;;31.97;;
13349;SDS011;6744;53.190;6.576;2022-12-01T04:54:02;43.83;;;32.10;;
13349;SDS011;6744;53.190;6.576;2022-12-01T04:56:27;44.90;;;32.60;;
13349;SDS011;6744;53.190;6.576;2022-12-01T04:58:53;43.00;;;31.27;;
13349;SDS011;6744;53.190;6.576;2022-12-01T05:01:19;42.37;;;31.50;;
13349;SDS011;6744;53.190;6.576;2022-12-01T05:03:45;43.77;;;31.83;;
13349;SDS011;6744;53.190;6.576;2022-12-01T05:06:17;44.70;;;33.67;;
13349;SDS011;6744;53.190;6.576;2022-12-01T05:08:44;47.87;;;32.60;;
13349;SDS011;6744;53.190;6.576;2022-12-01T05:11:09;47.87;;;34.27;;
13349;SDS011;6744;53.190;6.576;2022-12-01T05:13:40;46.83;;;33.87;;
13349;SDS011;6744;53.190;6.576;2022-12-01T05:16:07;44.77;;;32.30;;
13349;SDS011;6744;53.190;6.576;2022-12-01T05:18:37;46.93;;;32.27;;
13349;SDS011;6744;53.190;6.576;2022-12-01T05:21:03;40.07;;;30.53;;
13349;SDS011;6744;53.190;6.576;2022-12-01T05:23:31;38.17;;;29.33;;
13349;SDS011;6744;53.190;6.576;2022-12-01T05:25:58;41.07;;;29.80;;
13349;SDS011;6744;53.190;6.576;2022-12-01T05:28:24;39.20;;;29.73;;
13349;SDS011;6744;53.190;6.576;2022-12-01T05:30:50;38.77;;;28.47;;
13349;SDS011;6744;53.190;6.576;2022-12-01T05:33:16;40.50;;;29.30;;
13349;SDS011;6744;53.190;6.576;2022-12-01T05:35:41;39.63;;;28.40;;
13349;SDS011;6744;53.190;6.576;2022-12-01T05:38:07;40.27;;;28.77;;
13349;SDS011;6744;53.190;6.576;2022-12-01T05:40:32;38.27;;;28.20;;
13349;SDS011;6744;53.190;6.576;2022-12-01T05:42:58;39.37;;;29.10;;
13349;SDS011;6744;53.190;6.576;2022-12-01T05:45:23;35.90;;;27.00;;
13349;SDS011;6744;53.190;6.576;2022-12-01T05:47:49;40.13;;;27.80;;
13349;SDS011;6744;53.190;6.576;2022-12-01T05:50:14;37.27;;;27.07;;
13349;SDS011;6744;53.190;6.576;2022-12-01T05:52:40;37.33;;;27.00;;
13349;SDS011;6744;53.190;6.576;2022-12-01T05:55:06;38.43;;;28.33;;
13349;SDS011;6744;53.190;6.576;2022-12-01T05:57:32;32.87;;;25.77;;
13349;SDS011;6744;53.190;6.576;2022-12-01T05:59:57;37.80;;;27.17;;
13349;SDS011;6744;53.190;6.576;2022-12-01T06:02:23;35.77;;;26.50;;
13349;SDS011;6744;53.190;6.576;2022-12-01T06:04:50;35.43;;;25.33;;
13349;SDS011;6744;53.190;6.576;2022-12-01T06:07:16;39.20;;;27.90;;
13349;SDS011;6744;53.190;6.576;2022-12-01T06:09:41;39.37;;;28.57;;
13349;SDS011;6744;53.190;6.576;2022-12-01T06:12:09;37.90;;;26.90;;
13349;SDS011;6744;53.190;6.576;2022-12-01T06:14:34;37.87;;;27.80;;
13349;SDS011;6744;53.190;6.576;2022-12-01T06:16:59;37.03;;;26.50;;
13349;SDS011;6744;53.190;6.576;2022-12-01T06:19:25;37.40;;;26.87;;
13349;SDS011;6744;53.190;6.576;2022-12-01T06:21:50;38.47;;;27.97;;
13349;SDS011;6744;53.190;6.576;2022-12-01T06:24:16;36.00;;;26.07;;
13349;SDS011;6744;53.190;6.576;2022-12-01T06:26:41;36.90;;;26.60;;
13349;SDS011;6744;53.190;6.576;2022-12-01T06:29:08;36.97;;;26.93;;
13349;SDS011;6744;53.190;6.576;2022-12-01T06:31:34;38.70;;;27.67;;
13349;SDS011;6744;53.190;6.576;2022-12-01T06:33:59;36.93;;;26.87;;
13349;SDS011;6744;53.190;6.576;2022-12-01T06:36:25;36.60;;;26.67;;
13349;SDS011;6744;53.190;6.576;2022-12-01T06:38:50;34.60;;;25.70;;
13349;SDS011;6744;53.190;6.576;2022-12-01T06:41:15;37.03;;;26.60;;
13349;SDS011;6744;53.190;6.576;2022-12-01T06:43:41;36.20;;;26.33;;
13349;SDS011;6744;53.190;6.576;2022-12-01T06:46:06;34.50;;;25.80;;
13349;SDS011;6744;53.190;6.576;2022-12-01T06:48:32;33.97;;;25.27;;
13349;SDS011;6744;53.190;6.576;2022-12-01T06:50:58;36.40;;;26.50;;
13349;SDS011;6744;53.190;6.576;2022-12-01T06:53:25;34.33;;;25.63;;
13349;SDS011;6744;53.190;6.576;2022-12-01T06:55:53;33.83;;;25.33;;
13349;SDS011;6744;53.190;6.576;2022-12-01T06:58:19;33.63;;;25.00;;
13349;SDS011;6744;53.190;6.576;2022-12-01T07:00:44;34.13;;;25.47;;
13349;SDS011;6744;53.190;6.576;2022-12-01T07:03:09;33.80;;;25.07;;
13349;SDS011;6744;53.190;6.576;2022-12-01T07:05:35;35.73;;;25.87;;
13349;SDS011;6744;53.190;6.576;2022-12-01T07:08:00;35.17;;;25.90;;
13349;SDS011;6744;53.190;6.576;2022-12-01T07:10:26;33.30;;;24.80;;
13349;SDS011;6744;53.190;6.576;2022-12-01T07:12:52;31.87;;;23.73;;
13349;SDS011;6744;53.190;6.576;2022-12-01T07:15:17;32.67;;;24.80;;
13349;SDS011;6744;53.190;6.576;2022-12-01T07:17:43;32.17;;;24.03;;
13349;SDS011;6744;53.190;6.576;2022-12-01T07:20:08;32.13;;;24.33;;
13349;SDS011;6744;53.190;6.576;2022-12-01T07:22:34;33.33;;;24.77;;
13349;SDS011;6744;53.190;6.576;2022-12-01T07:25:00;35.73;;;25.90;;
13349;SDS011;6744;53.190;6.576;2022-12-01T07:27:28;34.87;;;26.60;;
13349;SDS011;6744;53.190;6.576;2022-12-01T07:29:54;36.33;;;26.10;;
13349;SDS011;6744;53.190;6.576;2022-12-01T07:32:19;33.97;;;24.40;;
13349;SDS011;6744;53.190;6.576;2022-12-01T07:34:44;34.77;;;24.33;;
13349;SDS011;6744;53.190;6.576;2022-12-01T07:37:10;35.30;;;25.20;;
13349;SDS011;6744;53.190;6.576;2022-12-01T07:39:35;33.37;;;23.97;;
13349;SDS011;6744;53.190;6.576;2022-12-01T07:42:00;33.73;;;24.50;;
13349;SDS011;6744;53.190;6.576;2022-12-01T07:44:26;33.33;;;24.50;;
13349;SDS011;6744;53.190;6.576;2022-12-01T07:46:52;35.13;;;25.37;;
13349;SDS011;6744;53.190;6.576;2022-12-01T07:49:18;32.17;;;24.27;;
13349;SDS011;6744;53.190;6.576;2022-12-01T07:51:43;31.43;;;23.00;;
13349;SDS011;6744;53.190;6.576;2022-12-01T07:54:09;31.20;;;24.60;;
13349;SDS011;6744;53.190;6.576;2022-12-01T07:56:35;30.63;;;22.90;;
13349;SDS011;6744;53.190;6.576;2022-12-01T07:59:01;30.10;;;21.90;;
13349;SDS011;6744;53.190;6.576;2022-12-01T08:01:26;30.67;;;22.90;;
13349;SDS011;6744;53.190;6.576;2022-12-01T08:03:53;29.80;;;22.80;;
13349;SDS011;6744;53.190;6.576;2022-12-01T08:06:20;28.47;;;21.43;;
13349;SDS011;6744;53.190;6.576;2022-12-01T08:08:46;28.87;;;21.53;;
13349;SDS011;6744;53.190;6.576;2022-12-01T08:11:13;31.43;;;22.70;;
13349;SDS011;6744;53.190;6.576;2022-12-01T08:13:39;30.93;;;22.23;;
13349;SDS011;6744;53.190;6.576;2022-12-01T08:16:06;29.83;;;23.17;;
13349;SDS011;6744;53.190;6.576;2022-12-01T08:18:32;25.93;;;20.10;;
13349;SDS011;6744;53.190;6.576;2022-12-01T08:21:02;27.57;;;21.60;;
13349;SDS011;6744;53.190;6.576;2022-12-01T08:23:28;27.33;;;20.33;;
13349;SDS011;6744;53.190;6.576;2022-12-01T08:25:54;27.07;;;19.87;;
13349;SDS011;6744;53.190;6.576;2022-12-01T08:28:19;26.50;;;20.07;;
13349;SDS011;6744;53.190;6.576;2022-12-01T08:30:45;25.10;;;20.20;;
13349;SDS011;6744;53.190;6.576;2022-12-01T08:33:11;27.63;;;21.63;;
13349;SDS011;6744;53.190;6.576;2022-12-01T08:35:36;26.80;;;19.93;;
13349;SDS011;6744;53.190;6.576;2022-12-01T08:38:01;26.70;;;20.20;;
13349;SDS011;6744;53.190;6.576;2022-12-01T08:40:27;25.67;;;20.10;;
13349;SDS011;6744;53.190;6.576;2022-12-01T08:42:52;26.60;;;19.37;;
13349;SDS011;6744;53.190;6.576;2022-12-01T08:45:18;26.13;;;21.00;;
13349;SDS011;6744;53.190;6.576;2022-12-01T08:47:43;28.23;;;20.47;;
13349;SDS011;6744;53.190;6.576;2022-12-01T08:50:09;27.53;;;21.03;;
13349;SDS011;6744;53.190;6.576;2022-12-01T08:52:35;26.73;;;20.47;;
13349;SDS011;6744;53.190;6.576;2022-12-01T08:55:01;26.77;;;21.03;;
13349;SDS011;6744;53.190;6.576;2022-12-01T08:57:27;30.47;;;22.27;;
13349;SDS011;6744;53.190;6.576;2022-12-01T08:59:53;28.07;;;20.97;;
13349;SDS011;6744;53.190;6.576;2022-12-01T09:02:19;28.87;;;21.83;;
13349;SDS011;6744;53.190;6.576;2022-12-01T09:04:47;26.97;;;20.63;;
13349;SDS011;6744;53.190;6.576;2022-12-01T09:07:14;23.67;;;20.23;;
13349;SDS011;6744;53.190;6.576;2022-12-01T09:09:40;25.37;;;20.33;;
13349;SDS011;6744;53.190;6.576;2022-12-01T09:12:06;24.27;;;19.97;;
13349;SDS011;6744;53.190;6.576;2022-12-01T09:14:35;25.37;;;20.03;;
13349;SDS011;6744;53.190;6.576;2022-12-01T09:17:05;24.23;;;20.10;;
13349;SDS011;6744;53.190;6.576;2022-12-01T09:19:31;23.03;;;18.83;;
13349;SDS011;6744;53.190;6.576;2022-12-01T09:21:56;22.77;;;19.07;;
13349;SDS011;6744;53.190;6.576;2022-12-01T09:24:22;22.40;;;18.93;;
13349;SDS011;6744;53.190;6.576;2022-12-01T09:26:48;22.43;;;19.10;;
13349;SDS011;6744;53.190;6.576;2022-12-01T09:29:14;21.63;;;17.93;;
13349;SDS011;6744;53.190;6.576;2022-12-01T09:31:40;22.70;;;18.17;;
13349;SDS011;6744;53.190;6.576;2022-12-01T09:34:07;20.57;;;17.27;;
13349;SDS011;6744;53.190;6.576;2022-12-01T09:36:35;19.23;;;17.13;;
13349;SDS011;6744;53.190;6.576;2022-12-01T09:39:01;17.27;;;15.47;;
13349;SDS011;6744;53.190;6.576;2022-12-01T09:41:32;18.13;;;15.43;;
13349;SDS011;6744;53.190;6.576;2022-12-01T09:44:03;18.43;;;15.77;;
13349;SDS011;6744;53.190;6.576;2022-12-01T09:46:45;17.30;;;15.53;;
13349;SDS011;6744;53.190;6.576;2022-12-01T09:49:21;15.77;;;14.13;;
13349;SDS011;6744;53.190;6.576;2022-12-01T09:51:49;17.67;;;15.70;;
13349;SDS011;6744;53.190;6.576;2022-12-01T09:54:16;18.33;;;16.10;;
13349;SDS011;6744;53.190;6.576;2022-12-01T09:56:46;17.60;;;15.60;;
13349;SDS011;6744;53.190;6.576;2022-12-01T09:59:18;19.50;;;16.53;;
13349;SDS011;6744;53.190;6.576;2022-12-01T10:01:48;21.53;;;18.00;;
13349;SDS011;6744;53.190;6.576;2022-12-01T10:07:12;21.73;;;19.30;;
13349;SDS011;6744;53.190;6.576;2022-12-01T10:09:46;24.70;;;19.93;;
13349;SDS011;6744;53.190;6.576;2022-12-01T10:12:17;23.77;;;19.20;;
13349;SDS011;6744;53.190;6.576;2022-12-01T10:14:45;23.57;;;19.77;;
13349;SDS011;6744;53.190;6.576;2022-12-01T10:17:30;23.90;;;19.63;;
13349;SDS011;6744;53.190;6.576;2022-12-01T10:20:53;20.63;;;18.00;;
13349;SDS011;6744;53.190;6.576;2022-12-01T10:31:19;22.43;;;18.93;;
13349;SDS011;6744;53.190;6.576;2022-12-01T10:33:59;23.27;;;20.17;;
13349;SDS011;6744;53.190;6.576;2022-12-01T10:36:26;26.93;;;21.47;;
13349;SDS011;6744;53.190;6.576;2022-12-01T10:38:52;24.50;;;21.27;;
13349;SDS011;6744;53.190;6.576;2022-12-01T10:41:18;26.43;;;22.40;;
13349;SDS011;6744;53.190;6.576;2022-12-01T10:43:46;28.47;;;22.47;;
13349;SDS011;6744;53.190;6.576;2022-12-01T10:46:23;29.03;;;22.87;;
13349;SDS011;6744;53.190;6.576;2022-12-01T10:48:52;29.83;;;22.93;;
13349;SDS011;6744;53.190;6.576;2022-12-01T10:51:19;28.40;;;23.57;;
13349;SDS011;6744;53.190;6.576;2022-12-01T10:53:46;31.93;;;23.97;;
13349;SDS011;6744;53.190;6.576;2022-12-01T10:56:16;30.37;;;23.77;;
13349;SDS011;6744;53.190;6.576;2022-12-01T10:58:56;32.03;;;24.40;;
13349;SDS011;6744;53.190;6.576;2022-12-01T11:01:24;30.13;;;23.23;;
13349;SDS011;6744;53.190;6.576;2022-12-01T11:03:51;30.60;;;24.13;;
13349;SDS011;6744;53.190;6.576;2022-12-01T11:06:37;29.83;;;23.37;;
13349;SDS011;6744;53.190;6.576;2022-12-01T11:09:04;30.13;;;23.50;;
13349;SDS011;6744;53.190;6.576;2022-12-01T11:11:33;30.00;;;22.83;;
13349;SDS011;6744;53.190;6.576;2022-12-01T11:14:04;29.17;;;22.97;;
13349;SDS011;6744;53.190;6.576;2022-12-01T11:16:35;30.87;;;22.47;;
13349;SDS011;6744;53.190;6.576;2022-12-01T11:19:18;26.50;;;21.33;;
13349;SDS011;6744;53.190;6.576;2022-12-01T11:21:47;28.50;;;21.70;;
13349;SDS011;6744;53.190;6.576;2022-12-01T11:24:18;28.67;;;23.53;;
13349;SDS011;6744;53.190;6.576;2022-12-01T11:26:49;29.90;;;23.50;;
13349;SDS011;6744;53.190;6.576;2022-12-01T11:31:56;28.27;;;22.13;;
13349;SDS011;6744;53.190;6.576;2022-12-01T11:34:28;29.37;;;22.77;;
13349;SDS011;6744;53.190;6.576;2022-12-01T11:37:03;29.97;;;23.57;;
13349;SDS011;6744;53.190;6.576;2022-12-01T11:41:58;30.37;;;23.13;;
13349;SDS011;6744;53.190;6.576;2022-12-01T11:44:25;29.33;;;22.93;;
13349;SDS011;6744;53.190;6.576;2022-12-01T11:46:50;28.77;;;21.67;;
13349;SDS011;6744;53.190;6.576;2022-12-01T11:49:20;28.53;;;21.97;;
13349;SDS011;6744;53.190;6.576;2022-12-01T11:51:47;28.07;;;21.70;;
13349;SDS011;6744;53.190;6.576;2022-12-01T11:56:43;28.50;;;22.77;;
13349;SDS011;6744;53.190;6.576;2022-12-01T11:59:13;29.67;;;22.43;;
13349;SDS011;6744;53.190;6.576;2022-12-01T12:10:13;30.83;;;24.37;;
13349;SDS011;6744;53.190;6.576;2022-12-01T12:17:55;29.83;;;23.40;;
13349;SDS011;6744;53.190;6.576;2022-12-01T12:20:32;29.30;;;23.10;;
13349;SDS011;6744;53.190;6.576;2022-12-01T12:25:43;28.57;;;22.57;;
13349;SDS011;6744;53.190;6.576;2022-12-01T12:43:13;25.33;;;21.67;;
13349;SDS011;6744;53.190;6.576;2022-12-01T12:49:16;26.53;;;21.60;;
13349;SDS011;6744;53.190;6.576;2022-12-01T12:56:48;28.60;;;22.20;;
13349;SDS011;6744;53.190;6.576;2022-12-01T13:04:42;21.43;;;18.60;;
13349;SDS011;6744;53.190;6.576;2022-12-01T13:07:36;21.30;;;18.53;;
13349;SDS011;6744;53.190;6.576;2022-12-01T13:10:23;23.20;;;19.60;;
13349;SDS011;6744;53.190;6.576;2022-12-01T13:12:51;21.90;;;18.00;;
13349;SDS011;6744;53.190;6.576;2022-12-01T13:15:20;22.70;;;18.63;;
13349;SDS011;6744;53.190;6.576;2022-12-01T13:20:20;22.83;;;18.90;;
13349;SDS011;6744;53.190;6.576;2022-12-01T13:22:51;24.40;;;19.60;;
13349;SDS011;6744;53.190;6.576;2022-12-01T13:25:22;23.57;;;19.20;;
13349;SDS011;6744;53.190;6.576;2022-12-01T13:27:50;22.53;;;19.97;;
13349;SDS011;6744;53.190;6.576;2022-12-01T13:30:17;24.57;;;19.10;;
13349;SDS011;6744;53.190;6.576;2022-12-01T13:32:44;24.73;;;20.57;;
13349;SDS011;6744;53.190;6.576;2022-12-01T13:37:44;25.63;;;20.93;;
13349;SDS011;6744;53.190;6.576;2022-12-01T13:40:21;24.30;;;20.27;;
13349;SDS011;6744;53.190;6.576;2022-12-01T13:42:58;28.17;;;22.33;;
13349;SDS011;6744;53.190;6.576;2022-12-01T13:45:28;26.40;;;21.13;;
13349;SDS011;6744;53.190;6.576;2022-12-01T13:48:00;26.13;;;21.67;;
13349;SDS011;6744;53.190;6.576;2022-12-01T13:50:36;25.73;;;21.37;;
13349;SDS011;6744;53.190;6.576;2022-12-01T13:58:24;30.50;;;23.73;;
13349;SDS011;6744;53.190;6.576;2022-12-01T14:00:49;29.37;;;24.23;;
13349;SDS011;6744;53.190;6.576;2022-12-01T14:08:15;29.50;;;23.27;;
13349;SDS011;6744;53.190;6.576;2022-12-01T14:10:50;31.10;;;24.50;;
13349;SDS011;6744;53.190;6.576;2022-12-01T14:13:17;31.43;;;24.50;;
13349;SDS011;6744;53.190;6.576;2022-12-01T14:15:50;30.73;;;24.53;;
13349;SDS011;6744;53.190;6.576;2022-12-01T14:18:33;27.67;;;22.93;;
13349;SDS011;6744;53.190;6.576;2022-12-01T14:21:05;27.73;;;22.77;;
13349;SDS011;6744;53.190;6.576;2022-12-01T14:23:35;29.33;;;24.00;;
13349;SDS011;6744;53.190;6.576;2022-12-01T14:26:10;29.47;;;22.83;;
13349;SDS011;6744;53.190;6.576;2022-12-01T14:34:14;29.37;;;24.13;;
13349;SDS011;6744;53.190;6.576;2022-12-01T14:36:46;32.37;;;24.60;;
13349;SDS011;6744;53.190;6.576;2022-12-01T14:39:17;29.70;;;24.63;;
13349;SDS011;6744;53.190;6.576;2022-12-01T14:41:45;29.57;;;24.93;;
13349;SDS011;6744;53.190;6.576;2022-12-01T14:44:15;28.33;;;24.37;;
13349;SDS011;6744;53.190;6.576;2022-12-01T14:47:04;27.23;;;23.77;;
13349;SDS011;6744;53.190;6.576;2022-12-01T14:49:51;32.53;;;25.93;;
13349;SDS011;6744;53.190;6.576;2022-12-01T14:54:51;30.27;;;25.07;;
13349;SDS011;6744;53.190;6.576;2022-12-01T14:57:20;32.77;;;25.97;;
13349;SDS011;6744;53.190;6.576;2022-12-01T15:00:00;32.63;;;25.67;;
13349;SDS011;6744;53.190;6.576;2022-12-01T15:02:26;30.60;;;24.53;;
13349;SDS011;6744;53.190;6.576;2022-12-01T15:07:38;31.60;;;25.77;;
13349;SDS011;6744;53.190;6.576;2022-12-01T15:10:05;36.03;;;28.57;;
13349;SDS011;6744;53.190;6.576;2022-12-01T15:12:39;34.53;;;27.17;;
13349;SDS011;6744;53.190;6.576;2022-12-01T15:15:12;31.70;;;26.77;;
13349;SDS011;6744;53.190;6.576;2022-12-01T15:17:39;31.53;;;25.43;;
13349;SDS011;6744;53.190;6.576;2022-12-01T15:20:23;35.13;;;28.40;;
13349;SDS011;6744;53.190;6.576;2022-12-01T15:23:00;35.70;;;28.00;;
13349;SDS011;6744;53.190;6.576;2022-12-01T15:25:33;31.57;;;26.43;;
13349;SDS011;6744;53.190;6.576;2022-12-01T15:28:14;36.80;;;29.33;;
13349;SDS011;6744;53.190;6.576;2022-12-01T15:30:41;37.80;;;30.07;;
13349;SDS011;6744;53.190;6.576;2022-12-01T15:33:10;36.00;;;28.93;;
13349;SDS011;6744;53.190;6.576;2022-12-01T15:35:42;37.30;;;30.33;;
13349;SDS011;6744;53.190;6.576;2022-12-01T15:38:11;34.60;;;27.97;;
13349;SDS011;6744;53.190;6.576;2022-12-01T15:40:41;38.77;;;29.77;;
13349;SDS011;6744;53.190;6.576;2022-12-01T15:43:13;36.57;;;28.73;;
13349;SDS011;6744;53.190;6.576;2022-12-01T15:45:43;42.07;;;30.30;;
13349;SDS011;6744;53.190;6.576;2022-12-01T15:48:15;37.67;;;29.20;;
13349;SDS011;6744;53.190;6.576;2022-12-01T15:50:48;39.40;;;29.30;;
13349;SDS011;6744;53.190;6.576;2022-12-01T15:53:27;37.03;;;30.07;;
13349;SDS011;6744;53.190;6.576;2022-12-01T15:55:57;38.07;;;30.33;;
13349;SDS011;6744;53.190;6.576;2022-12-01T15:58:27;40.67;;;30.53;;
13349;SDS011;6744;53.190;6.576;2022-12-01T16:03:23;40.27;;;30.67;;
13349;SDS011;6744;53.190;6.576;2022-12-01T16:05:49;36.97;;;29.67;;
13349;SDS011;6744;53.190;6.576;2022-12-01T16:08:19;37.37;;;30.00;;
13349;SDS011;6744;53.190;6.576;2022-12-01T16:11:07;40.17;;;30.90;;
13349;SDS011;6744;53.190;6.576;2022-12-01T16:13:42;40.30;;;30.87;;
13349;SDS011;6744;53.190;6.576;2022-12-01T16:21:26;40.63;;;30.80;;
13349;SDS011;6744;53.190;6.576;2022-12-01T16:23:58;43.40;;;31.07;;
13349;SDS011;6744;53.190;6.576;2022-12-01T16:26:27;39.20;;;29.37;;
13349;SDS011;6744;53.190;6.576;2022-12-01T16:28:54;38.97;;;31.43;;
13349;SDS011;6744;53.190;6.576;2022-12-01T16:31:19;40.30;;;30.00;;
13349;SDS011;6744;53.190;6.576;2022-12-01T16:33:45;38.90;;;30.83;;
13349;SDS011;6744;53.190;6.576;2022-12-01T16:36:10;39.83;;;31.60;;
13349;SDS011;6744;53.190;6.576;2022-12-01T16:38:38;42.23;;;31.13;;
13349;SDS011;6744;53.190;6.576;2022-12-01T16:41:13;38.53;;;31.17;;
13349;SDS011;6744;53.190;6.576;2022-12-01T16:43:39;42.00;;;32.30;;
13349;SDS011;6744;53.190;6.576;2022-12-01T16:46:05;43.13;;;31.83;;
13349;SDS011;6744;53.190;6.576;2022-12-01T16:48:34;41.77;;;31.97;;
13349;SDS011;6744;53.190;6.576;2022-12-01T16:51:02;41.87;;;32.30;;
13349;SDS011;6744;53.190;6.576;2022-12-01T16:53:29;40.47;;;31.53;;
13349;SDS011;6744;53.190;6.576;2022-12-01T16:55:55;42.33;;;33.70;;